Current | Forecast
Updated: 4:00 PM ChST on May 01, 2017
Observed at Iwojima, Japan
Temperature 77°F
Humidity 69%
Dew Point 66°F
Wind ENE at 10 mph
Pressure 29.98 in (Falling)
Conditions Scattered Clouds
Visibility 6.2 miles
UV 6 out of 16
Clouds (FEW) : 1500 ft
Scattered Clouds (SCT) : 23000 ft
Yesterday's Maximum 75°F
Yesterday's Minimum 68°F approx.
Yesterday's Cooling Degree Days 7 approx.
Sunrise4:58 AM JST
Sunset6:05 PM JST
Moon Rise9:18 AM JST
Moon Set11:03 PM JST
Moon PhaseMoon Phase
Waxing Crescent
Raw METARMETAR RJAW 010600Z 07009KT 040V100 9999 FEW015 SCT230 25/19 Q1015 RMK 1CU015 A2999


Monday
. High: 80° F.
Tuesday
. High: 80° F.
Wednesday
. High: 80° F.
Thursday
. High: 80° F.
Friday
. High: 82° F.
Saturday
. High: 82° F.
Sunday
. High: 82° F.
Monday
. High: 82° F.

Units: English | Metric

Find the Weather for any City, State or Zipcode, or Country:

U.S. State List | Severe Weather | Tropical Storms | Ski Conditions
United States | Canada | Central America | South America | Asia | Europe | Australia | Africa | Islands

Weather Underground

© Copyright 2017
The Weather Company, LLC